Time;durP1;ratioP1;P1;durP2;ratioP2;P2;SDS_P1;SDS_P2;PMS_P1;PMS_P2;Temp;Humidity;BMP_temperature;BMP_pressure;BME280_temperature;BME280_humidity;BME280_pressure;Samples;Min_cycle;Max_cycle;Signal;HPM_P1;HPM_P2
2021/12/17 00:00:45;;;;;;;55.73;25.67;;;;;;;;;;5053764;28;20024;-88
2021/12/17 00:03:17;;;;;;;54.87;26.33;;;;;;;;;;5053521;28;20016;-88
2021/12/17 00:06:05;;;;;;;53.72;24.13;;;;;;;;;;5034940;28;20658;-88
2021/12/17 00:08:28;;;;;;;61.40;25.23;;;;;;;;;;5037784;28;20469;-87
2021/12/17 00:10:53;;;;;;;59.40;25.77;;;;;;;;;;5053565;28;20040;-87
2021/12/17 00:13:19;;;;;;;56.03;25.23;;;;;;;;;;5052028;28;20068;-87
2021/12/17 00:15:45;;;;;;;56.50;24.30;;;;;;;;;;5054579;28;20091;-87
2021/12/17 00:18:17;;;;;;;56.73;26.07;;;;;;;;;;5053262;28;20036;-87
2021/12/17 00:53:01;;;;;;;60.73;24.70;;;;;;;;;;5053830;28;20018;-87
2021/12/17 00:55:26;;;;;;;53.43;25.10;;;;;;;;;;5052368;28;20039;-87
2021/12/17 00:57:51;;;;;;;54.47;25.33;;;;;;;;;;5052433;28;20353;-88
2021/12/17 01:00:18;;;;;;;57.53;27.13;;;;;;;;;;5052497;28;20415;-87
2021/12/17 01:02:44;;;;;;;59.53;27.67;;;;;;;;;;5056511;28;20491;-87
2021/12/17 01:05:19;;;;;;;57.37;25.17;;;;;;;;;;5047859;28;20052;-87
2021/12/17 01:07:46;;;;;;;63.83;27.60;;;;;;;;;;5051582;28;20127;-87
2021/12/17 01:10:13;;;;;;;55.83;25.83;;;;;;;;;;5052072;28;20021;-87
2021/12/17 01:12:38;;;;;;;62.10;28.17;;;;;;;;;;5051374;28;20066;-87
2021/12/17 01:15:05;;;;;;;57.50;26.90;;;;;;;;;;5051577;28;20025;-87
2021/12/17 01:17:33;;;;;;;65.17;26.40;;;;;;;;;;5051677;28;20025;-87
2021/12/17 01:25:14;;;;;;;49.80;24.23;;;;;;;;;;5052377;28;20465;-87
2021/12/17 01:35:51;;;;;;;59.13;26.37;;;;;;;;;;5053066;28;20056;-87
2021/12/17 01:43:32;;;;;;;56.23;25.10;;;;;;;;;;5050695;28;20074;-87
2021/12/17 01:45:58;;;;;;;49.13;23.13;;;;;;;;;;5052424;28;20027;-87
2021/12/17 01:48:31;;;;;;;57.87;23.10;;;;;;;;;;5052003;28;20025;-87
2021/12/17 02:01:35;;;;;;;52.43;25.30;;;;;;;;;;5057664;28;20090;-87
2021/12/17 02:04:02;;;;;;;52.97;25.20;;;;;;;;;;5055636;28;20029;-87
2021/12/17 02:06:29;;;;;;;48.67;23.47;;;;;;;;;;5056703;28;20028;-87
2021/12/17 02:08:57;;;;;;;59.63;25.73;;;;;;;;;;5055831;28;20017;-87
2021/12/17 02:32:48;;;;;;;51.80;24.07;;;;;;;;;;5055685;28;20385;-87
2021/12/17 02:35:39;;;;;;;53.57;24.30;;;;;;;;;;5054412;28;20017;-87
2021/12/17 02:37:59;;;;;;;48.27;23.43;;;;;;;;;;5055777;28;20041;-87
2021/12/17 02:45:36;;;;;;;51.23;23.50;;;;;;;;;;5056732;28;20104;-87
2021/12/17 02:48:08;;;;;;;46.40;21.43;;;;;;;;;;5053787;28;20043;-88
2021/12/17 02:50:39;;;;;;;42.17;21.93;;;;;;;;;;5055999;28;20040;-87
2021/12/17 02:53:07;;;;;;;46.53;22.67;;;;;;;;;;5054541;28;20028;-87
2021/12/17 02:55:33;;;;;;;51.23;23.80;;;;;;;;;;5054808;28;20056;-87
2021/12/17 02:57:58;;;;;;;52.63;23.53;;;;;;;;;;5054492;28;20542;-87
2021/12/17 03:00:24;;;;;;;59.00;24.47;;;;;;;;;;5054154;28;20009;-87
2021/12/17 03:02:49;;;;;;;52.33;23.83;;;;;;;;;;5054568;28;20041;-87
2021/12/17 03:05:15;;;;;;;50.50;22.10;;;;;;;;;;5054690;28;20024;-87
2021/12/17 03:07:44;;;;;;;48.33;21.47;;;;;;;;;;5054445;28;20025;-87
2021/12/17 03:10:11;;;;;;;46.47;20.93;;;;;;;;;;5054498;28;20028;-87
2021/12/17 03:15:19;;;;;;;47.20;22.37;;;;;;;;;;5058088;28;20056;-87
2021/12/17 03:25:52;;;;;;;44.77;20.57;;;;;;;;;;5055381;28;20041;-87
2021/12/17 03:28:17;;;;;;;39.20;20.13;;;;;;;;;;5054032;28;20036;-87
2021/12/17 03:30:43;;;;;;;44.93;21.17;;;;;;;;;;5054173;28;20108;-87
2021/12/17 03:33:08;;;;;;;40.43;20.37;;;;;;;;;;5054036;28;20079;-87
2021/12/17 03:35:33;;;;;;;44.10;21.33;;;;;;;;;;5054114;28;20017;-87
2021/12/17 03:37:58;;;;;;;43.47;21.37;;;;;;;;;;5054016;28;20013;-87
2021/12/17 03:40:24;;;;;;;48.43;22.37;;;;;;;;;;5053996;28;20047;-87
2021/12/17 03:42:51;;;;;;;50.90;22.70;;;;;;;;;;5055214;28;20020;-87
2021/12/17 03:45:19;;;;;;;54.30;24.20;;;;;;;;;;5054017;28;20009;-87
2021/12/17 03:47:45;;;;;;;53.40;22.50;;;;;;;;;;5054002;28;20013;-87
2021/12/17 03:50:11;;;;;;;43.67;21.27;;;;;;;;;;5053557;28;20117;-86
2021/12/17 03:52:36;;;;;;;51.50;21.67;;;;;;;;;;5053745;28;20021;-87
2021/12/17 03:55:02;;;;;;;46.67;22.20;;;;;;;;;;5053633;28;20465;-87
2021/12/17 03:57:27;;;;;;;44.90;20.17;;;;;;;;;;5054808;28;20048;-87
2021/12/17 03:59:52;;;;;;;52.00;22.27;;;;;;;;;;5053555;28;20028;-87
2021/12/17 04:02:18;;;;;;;43.00;19.10;;;;;;;;;;5054844;28;20067;-87
2021/12/17 04:04:43;;;;;;;40.80;19.03;;;;;;;;;;5053454;28;20016;-87
2021/12/17 04:07:09;;;;;;;38.63;18.50;;;;;;;;;;5053489;28;20043;-87
2021/12/17 04:09:34;;;;;;;36.97;17.83;;;;;;;;;;5053278;28;20024;-87
2021/12/17 04:12:06;;;;;;;41.17;18.50;;;;;;;;;;5052812;28;20021;-87
2021/12/17 04:14:46;;;;;;;31.27;16.80;;;;;;;;;;5053332;28;20028;-88
2021/12/17 04:17:13;;;;;;;33.70;16.40;;;;;;;;;;5053137;28;20044;-87
2021/12/17 04:19:38;;;;;;;36.23;16.50;;;;;;;;;;5053294;28;20021;-87
2021/12/17 04:22:04;;;;;;;30.93;15.70;;;;;;;;;;5053207;28;20055;-87
2021/12/17 04:24:29;;;;;;;31.80;15.97;;;;;;;;;;5054125;28;20044;-87
2021/12/17 04:26:54;;;;;;;29.43;15.57;;;;;;;;;;5053028;28;20025;-87
2021/12/17 04:29:21;;;;;;;30.10;15.00;;;;;;;;;;5052598;28;20024;-87
2021/12/17 04:31:52;;;;;;;30.63;15.63;;;;;;;;;;5052893;28;20048;-87
2021/12/17 04:34:18;;;;;;;33.17;15.40;;;;;;;;;;5053014;28;20051;-87
2021/12/17 04:36:45;;;;;;;26.87;14.67;;;;;;;;;;5052871;28;20024;-87
2021/12/17 04:39:10;;;;;;;25.77;14.20;;;;;;;;;;5053051;28;20021;-87
2021/12/17 04:44:27;;;;;;;25.93;14.80;;;;;;;;;;5054754;28;20502;-87
2021/12/17 04:57:39;;;;;;;31.67;15.97;;;;;;;;;;5054590;28;20035;-87
2021/12/17 05:00:08;;;;;;;32.27;15.50;;;;;;;;;;5052606;28;20025;-87
2021/12/17 05:02:38;;;;;;;34.33;16.03;;;;;;;;;;5052490;28;20120;-87
2021/12/17 05:05:07;;;;;;;28.47;14.33;;;;;;;;;;5052555;28;20021;-87
2021/12/17 05:07:33;;;;;;;32.50;15.47;;;;;;;;;;5053709;28;20032;-87
2021/12/17 05:23:09;;;;;;;33.87;15.93;;;;;;;;;;5053635;28;20021;-86
2021/12/17 05:25:34;;;;;;;31.43;15.27;;;;;;;;;;5085690;28;20510;-87
2021/12/17 05:28:02;;;;;;;32.07;15.17;;;;;;;;;;5085709;28;20082;-87
2021/12/17 05:30:27;;;;;;;33.23;15.97;;;;;;;;;;5052202;28;20056;-87
2021/12/17 05:32:53;;;;;;;32.57;16.43;;;;;;;;;;5053424;28;20057;-87
2021/12/17 05:35:18;;;;;;;33.93;16.07;;;;;;;;;;5051867;28;20485;-88
2021/12/17 05:37:43;;;;;;;30.90;14.83;;;;;;;;;;5052214;28;20036;-87
2021/12/17 05:40:09;;;;;;;35.93;15.63;;;;;;;;;;5052328;28;20033;-87
2021/12/17 05:42:34;;;;;;;32.67;15.30;;;;;;;;;;5052123;28;20059;-87
2021/12/17 05:45:08;;;;;;;31.70;15.03;;;;;;;;;;5052166;28;20017;-88
2021/12/17 05:47:33;;;;;;;32.00;15.87;;;;;;;;;;5052219;28;20025;-87
2021/12/17 05:49:58;;;;;;;33.73;15.80;;;;;;;;;;5052305;28;20113;-88
2021/12/17 05:52:23;;;;;;;35.53;15.83;;;;;;;;;;5052097;28;20021;-87
2021/12/17 05:54:48;;;;;;;30.53;15.47;;;;;;;;;;5052022;28;20380;-87
2021/12/17 05:57:14;;;;;;;32.47;15.63;;;;;;;;;;5052050;28;20021;-88
2021/12/17 05:59:39;;;;;;;38.97;17.03;;;;;;;;;;5052187;28;20021;-87
2021/12/17 06:02:09;;;;;;;39.07;16.67;;;;;;;;;;5051551;28;20017;-87
2021/12/17 06:04:35;;;;;;;40.47;16.60;;;;;;;;;;5051861;28;20021;-87
2021/12/17 06:07:00;;;;;;;41.83;18.97;;;;;;;;;;5051588;28;20066;-87
2021/12/17 06:09:25;;;;;;;40.53;17.17;;;;;;;;;;5051358;28;20032;-87
2021/12/17 06:11:50;;;;;;;39.20;17.27;;;;;;;;;;5051210;28;20020;-87
2021/12/17 06:14:15;;;;;;;44.00;17.57;;;;;;;;;;5051461;28;20476;-87
2021/12/17 06:16:41;;;;;;;37.40;16.73;;;;;;;;;;5051637;28;20021;-87
2021/12/17 06:19:07;;;;;;;37.00;16.97;;;;;;;;;;5051368;28;20225;-87
2021/12/17 06:21:32;;;;;;;40.47;15.97;;;;;;;;;;5051157;28;20024;-87
2021/12/17 06:23:57;;;;;;;36.60;15.90;;;;;;;;;;5051372;28;20013;-87
2021/12/17 06:26:23;;;;;;;40.20;16.73;;;;;;;;;;5051086;28;20052;-87
2021/12/17 06:28:50;;;;;;;41.20;17.03;;;;;;;;;;5051707;28;20031;-87
2021/12/17 06:31:16;;;;;;;38.37;15.97;;;;;;;;;;5051651;28;20025;-88
2021/12/17 06:33:41;;;;;;;44.77;16.37;;;;;;;;;;5051783;28;20167;-87
2021/12/17 06:36:07;;;;;;;36.23;15.07;;;;;;;;;;5052910;28;20515;-87
2021/12/17 06:38:32;;;;;;;45.57;17.70;;;;;;;;;;5056410;28;20516;-87
2021/12/17 06:40:58;;;;;;;55.93;19.50;;;;;;;;;;5056411;28;20086;-88
2021/12/17 06:43:29;;;;;;;51.87;21.33;;;;;;;;;;5055041;28;20017;-88
2021/12/17 06:46:02;;;;;;;49.97;19.53;;;;;;;;;;5055129;28;20070;-87
2021/12/17 06:48:31;;;;;;;41.03;17.60;;;;;;;;;;5055210;28;20024;-87
2021/12/17 06:59:04;;;;;;;45.83;17.67;;;;;;;;;;5056391;28;20029;-87
2021/12/17 07:17:27;;;;;;;62.97;19.83;;;;;;;;;;5055585;28;20500;-87
2021/12/17 07:22:49;;;;;;;74.70;21.87;;;;;;;;;;5055200;28;20059;-87
2021/12/17 07:33:08;;;;;;;77.60;21.33;;;;;;;;;;5054823;28;20025;-87
2021/12/17 07:35:53;;;;;;;74.23;20.30;;;;;;;;;;5053923;28;20108;-87
2021/12/17 07:41:03;;;;;;;66.10;21.53;;;;;;;;;;5055573;28;20115;-87
2021/12/17 07:43:37;;;;;;;75.93;21.73;;;;;;;;;;5054138;28;20116;-87
2021/12/17 07:46:04;;;;;;;81.73;23.83;;;;;;;;;;5054113;28;20051;-87
2021/12/17 07:48:30;;;;;;;78.23;22.13;;;;;;;;;;5054886;28;20056;-87
2021/12/17 07:50:55;;;;;;;78.53;22.07;;;;;;;;;;5053816;28;20025;-87
2021/12/17 07:53:20;;;;;;;77.93;21.43;;;;;;;;;;5055226;28;20029;-86
2021/12/17 07:55:46;;;;;;;64.57;20.03;;;;;;;;;;5052530;28;20041;-88
2021/12/17 07:58:11;;;;;;;62.33;18.63;;;;;;;;;;5053109;28;20460;-88
2021/12/17 08:00:36;;;;;;;64.87;19.97;;;;;;;;;;5055589;28;20120;-88
2021/12/17 08:03:02;;;;;;;81.13;23.30;;;;;;;;;;5054618;28;20023;-87
2021/12/17 08:05:27;;;;;;;73.43;19.67;;;;;;;;;;5053306;28;20032;-87
2021/12/17 08:07:53;;;;;;;72.77;21.43;;;;;;;;;;5053547;28;20039;-87
2021/12/17 08:10:18;;;;;;;77.97;23.10;;;;;;;;;;5053366;28;20032;-87
2021/12/17 08:12:43;;;;;;;80.10;23.17;;;;;;;;;;5054504;28;20036;-88
2021/12/17 08:15:11;;;;;;;71.63;21.97;;;;;;;;;;5053437;28;20573;-88
2021/12/17 08:18:08;;;;;;;70.23;21.47;;;;;;;;;;5055207;28;20095;-87
2021/12/17 08:28:16;;;;;;;78.93;21.07;;;;;;;;;;5054069;28;20033;-87
2021/12/17 08:30:41;;;;;;;79.80;21.23;;;;;;;;;;5056023;28;20358;-87
2021/12/17 08:33:06;;;;;;;85.77;23.13;;;;;;;;;;5068776;28;20032;-89
2021/12/17 08:35:36;;;;;;;73.50;20.50;;;;;;;;;;5063011;28;20035;-89
2021/12/17 08:38:04;;;;;;;93.43;23.03;;;;;;;;;;5056309;28;20021;-90
2021/12/17 08:40:30;;;;;;;77.33;21.70;;;;;;;;;;5072903;28;20020;-88
2021/12/17 08:42:55;;;;;;;77.73;21.50;;;;;;;;;;5054618;28;20035;-88
2021/12/17 08:45:21;;;;;;;82.63;22.90;;;;;;;;;;5057558;28;20568;-87
2021/12/17 08:47:47;;;;;;;68.43;21.03;;;;;;;;;;5053992;28;20028;-87
2021/12/17 08:50:13;;;;;;;65.30;21.23;;;;;;;;;;5053183;28;20040;-89
2021/12/17 08:52:38;;;;;;;70.30;21.50;;;;;;;;;;5066956;28;20100;-88
2021/12/17 08:55:04;;;;;;;72.13;20.37;;;;;;;;;;5049781;28;20538;-88
2021/12/17 08:57:29;;;;;;;71.63;20.90;;;;;;;;;;5052533;28;20032;-87
2021/12/17 08:59:57;;;;;;;75.27;19.87;;;;;;;;;;5051923;28;20025;-89
2021/12/17 09:02:23;;;;;;;73.07;20.00;;;;;;;;;;5063435;28;20051;-89
2021/12/17 09:04:48;;;;;;;72.30;21.40;;;;;;;;;;5058546;28;20021;-89
2021/12/17 09:07:13;;;;;;;74.67;20.70;;;;;;;;;;5052381;28;20027;-89
2021/12/17 09:09:39;;;;;;;77.67;20.73;;;;;;;;;;5058202;28;20021;-89
2021/12/17 09:12:05;;;;;;;79.90;22.90;;;;;;;;;;5056034;28;20017;-88
2021/12/17 09:14:30;;;;;;;84.53;22.80;;;;;;;;;;5072431;28;20020;-88
2021/12/17 09:16:56;;;;;;;82.57;21.53;;;;;;;;;;5061039;28;20135;-89
2021/12/17 09:19:21;;;;;;;79.30;21.43;;;;;;;;;;5052276;28;20029;-89
2021/12/17 09:21:48;;;;;;;80.30;22.00;;;;;;;;;;5066759;28;20029;-89
2021/12/17 09:24:14;;;;;;;73.30;20.57;;;;;;;;;;5052778;28;20046;-89
2021/12/17 09:26:39;;;;;;;78.23;22.00;;;;;;;;;;5052650;28;20033;-88
2021/12/17 09:29:05;;;;;;;69.83;20.70;;;;;;;;;;5069999;28;20741;-88
2021/12/17 09:31:30;;;;;;;70.17;21.53;;;;;;;;;;5072522;28;20031;-89
2021/12/17 09:33:55;;;;;;;81.33;21.63;;;;;;;;;;5073822;28;20020;-88
2021/12/17 09:36:21;;;;;;;73.03;21.13;;;;;;;;;;5059260;28;20108;-88
2021/12/17 09:38:49;;;;;;;79.90;20.67;;;;;;;;;;5044426;28;20025;-90
2021/12/17 09:41:22;;;;;;;78.33;21.47;;;;;;;;;;5052154;28;20065;-89
2021/12/17 09:43:47;;;;;;;;;;;;;;;;;;5069466;28;20021;-88
2021/12/17 09:46:12;;;;;;;80.93;21.50;;;;;;;;;;5059236;28;20260;-89
2021/12/17 09:48:37;;;;;;;78.10;22.50;;;;;;;;;;5057963;28;20024;-87
2021/12/17 09:51:04;;;;;;;72.73;21.27;;;;;;;;;;5094009;28;20384;-88
2021/12/17 09:53:30;;;;;;;70.73;21.40;;;;;;;;;;5064251;28;20036;-88
2021/12/17 09:55:56;;;;;;;78.50;22.37;;;;;;;;;;5061535;28;20464;-89
2021/12/17 09:58:21;;;;;;;76.67;22.40;;;;;;;;;;5052166;28;20021;-88
2021/12/17 10:00:47;;;;;;;81.73;22.00;;;;;;;;;;5051982;28;20021;-88
2021/12/17 10:03:12;;;;;;;77.10;22.97;;;;;;;;;;5058321;28;20040;-89
2021/12/17 10:05:38;;;;;;;91.93;23.10;;;;;;;;;;5066524;28;20071;-88
2021/12/17 10:08:05;;;;;;;79.23;23.13;;;;;;;;;;5052158;28;20021;-89
2021/12/17 10:10:41;;;;;;;77.77;22.30;;;;;;;;;;5052864;28;20048;-89
2021/12/17 10:13:07;;;;;;;79.57;21.97;;;;;;;;;;5056095;28;20070;-89
2021/12/17 10:15:34;;;;;;;85.03;22.40;;;;;;;;;;5063869;28;20025;-89
2021/12/17 10:18:02;;;;;;;83.07;23.90;;;;;;;;;;5065834;28;20376;-87
2021/12/17 10:20:33;;;;;;;87.87;23.40;;;;;;;;;;5060430;28;20028;-88
2021/12/17 10:23:00;;;;;;;90.07;23.23;;;;;;;;;;5059262;28;20108;-87
2021/12/17 10:25:26;;;;;;;73.13;20.90;;;;;;;;;;5053864;28;20350;-87
2021/12/17 10:27:55;;;;;;;77.43;21.83;;;;;;;;;;5059996;28;20021;-88
2021/12/17 10:30:21;;;;;;;73.73;22.10;;;;;;;;;;5068892;28;20435;-88
2021/12/17 10:32:51;;;;;;;67.40;20.80;;;;;;;;;;5067548;28;20016;-86
2021/12/17 10:35:17;;;;;;;77.33;21.43;;;;;;;;;;5054778;28;20104;-87
2021/12/17 10:37:54;;;;;;;77.77;22.47;;;;;;;;;;5055780;28;20045;-87
2021/12/17 10:40:20;;;;;;;72.90;22.23;;;;;;;;;;5056731;28;20031;-89
2021/12/17 10:42:54;;;;;;;84.10;23.63;;;;;;;;;;5060834;28;20021;-88
2021/12/17 10:45:26;;;;;;;85.73;22.30;;;;;;;;;;5064341;28;20028;-87
2021/12/17 10:48:22;;;;;;;76.18;23.65;;;;;;;;;;5062103;28;20029;-88
2021/12/17 10:50:52;;;;;;;91.40;22.93;;;;;;;;;;5080411;28;20059;-87
2021/12/17 10:53:22;;;;;;;98.77;22.77;;;;;;;;;;5061837;28;20028;-88
2021/12/17 10:55:47;;;;;;;82.47;22.13;;;;;;;;;;5053030;28;20381;-88
2021/12/17 10:58:12;;;;;;;82.97;23.17;;;;;;;;;;5054711;28;20104;-88
2021/12/17 11:00:59;;;;;;;83.60;20.60;;;;;;;;;;5054535;28;20141;-88
2021/12/17 11:03:24;;;;;;;84.83;23.23;;;;;;;;;;5088570;28;20123;-88
2021/12/17 11:05:50;;;;;;;88.83;22.10;;;;;;;;;;5056418;28;20032;-88
2021/12/17 11:08:24;;;;;;;88.87;23.27;;;;;;;;;;5071926;28;20025;-88
2021/12/17 11:10:57;;;;;;;84.33;22.30;;;;;;;;;;5042575;28;20017;-89
2021/12/17 11:13:22;;;;;;;86.50;22.43;;;;;;;;;;5055027;28;20025;-90
2021/12/17 11:15:48;;;;;;;88.17;22.53;;;;;;;;;;5055892;28;20368;-88
2021/12/17 11:18:14;;;;;;;95.30;24.60;;;;;;;;;;5064527;28;20460;-89
2021/12/17 11:20:40;;;;;;;84.77;21.80;;;;;;;;;;5072496;28;20023;-88
2021/12/17 11:23:09;;;;;;;89.63;24.50;;;;;;;;;;5063814;28;20521;-89
2021/12/17 11:25:34;;;;;;;96.57;22.90;;;;;;;;;;5061366;28;20024;-89
2021/12/17 11:28:00;;;;;;;92.23;23.17;;;;;;;;;;5054291;28;20526;-89
2021/12/17 11:30:26;;;;;;;88.05;22.55;;;;;;;;;;5054704;28;20017;-89
2021/12/17 11:32:52;;;;;;;103.53;23.83;;;;;;;;;;5054820;28;20057;-89
2021/12/17 11:35:19;;;;;;;91.57;22.47;;;;;;;;;;5054730;28;20032;-89
2021/12/17 11:37:46;;;;;;;82.63;20.92;;;;;;;;;;5054580;28;20020;-89
2021/12/17 11:40:31;;;;;;;84.27;19.07;;;;;;;;;;5054665;28;20380;-89
2021/12/17 11:43:15;;;;;;;83.40;19.90;;;;;;;;;;5054022;28;20025;-89
2021/12/17 11:45:41;;;;;;;76.38;17.23;;;;;;;;;;5043294;28;20060;-89
2021/12/17 11:48:18;;;;;;;79.68;19.73;;;;;;;;;;5054498;28;20111;-90
2021/12/17 11:50:44;;;;;;;74.57;19.02;;;;;;;;;;5054617;28;20025;-88
2021/12/17 11:53:20;;;;;;;78.03;19.50;;;;;;;;;;5061802;28;20499;-89
2021/12/17 11:55:47;;;;;;;65.88;17.45;;;;;;;;;;5054120;28;20029;-90
2021/12/17 11:58:15;;;;;;;70.60;18.98;;;;;;;;;;5054031;28;20017;-90
2021/12/17 12:00:40;;;;;;;66.18;17.13;;;;;;;;;;5054217;28;20357;-90
2021/12/17 12:03:26;;;;;;;61.78;16.60;;;;;;;;;;5087785;28;20028;-91
2021/12/17 12:05:52;;;;;;;66.72;17.48;;;;;;;;;;5055169;28;20063;-91
2021/12/17 12:08:24;;;;;;;52.38;14.05;;;;;;;;;;5087506;28;20523;-91
2021/12/17 12:11:22;;;;;;;63.87;14.87;;;;;;;;;;5087387;28;20048;-91
2021/12/17 12:13:51;;;;;;;45.28;11.95;;;;;;;;;;5053785;28;20545;-91
2021/12/17 12:16:18;;;;;;;43.22;12.55;;;;;;;;;;5054968;28;20021;-91
2021/12/17 12:18:45;;;;;;;42.58;12.63;;;;;;;;;;5086690;28;20020;-91
2021/12/17 12:21:11;;;;;;;44.05;12.68;;;;;;;;;;5054820;28;20365;-91
2021/12/17 12:23:41;;;;;;;44.67;11.70;;;;;;;;;;5053564;28;20477;-91
2021/12/17 12:26:11;;;;;;;36.33;10.43;;;;;;;;;;5054043;28;20507;-91
2021/12/17 12:28:45;;;;;;;37.05;10.43;;;;;;;;;;5053718;28;20029;-90
2021/12/17 12:31:17;;;;;;;34.65;11.00;;;;;;;;;;5053625;28;20049;-91
2021/12/17 12:34:10;;;;;;;38.00;10.83;;;;;;;;;;5052798;28;20023;-91
2021/12/17 12:36:51;;;;;;;36.42;11.30;;;;;;;;;;5053506;28;20273;-90
2021/12/17 12:39:47;;;;;;;42.83;11.98;;;;;;;;;;5053721;28;20020;-90
2021/12/17 12:42:16;;;;;;;39.90;11.48;;;;;;;;;;5044811;28;20433;-92
2021/12/17 12:44:41;;;;;;;39.25;11.32;;;;;;;;;;5053614;28;20017;-90
2021/12/17 12:47:13;;;;;;;39.33;11.57;;;;;;;;;;5059221;28;20074;-91
2021/12/17 12:49:41;;;;;;;37.22;12.30;;;;;;;;;;5053347;28;20035;-92
2021/12/17 12:52:21;;;;;;;33.72;10.82;;;;;;;;;;5064949;28;20035;-91
2021/12/17 12:54:51;;;;;;;41.42;11.27;;;;;;;;;;5033515;28;20036;-91
2021/12/17 12:57:42;;;;;;;36.67;10.77;;;;;;;;;;5033465;28;20021;-91
2021/12/17 13:00:22;;;;;;;41.47;10.57;;;;;;;;;;5036204;28;20029;-91
2021/12/17 13:02:50;;;;;;;34.53;9.93;;;;;;;;;;5040829;28;20029;-91
2021/12/17 13:05:16;;;;;;;34.58;10.88;;;;;;;;;;5053354;28;20056;-91
2021/12/17 13:07:47;;;;;;;29.67;9.30;;;;;;;;;;5053238;28;20055;-91
2021/12/17 13:10:12;;;;;;;32.80;9.88;;;;;;;;;;5053262;28;20115;-91
2021/12/17 13:12:38;;;;;;;36.13;10.52;;;;;;;;;;5053259;28;20412;-91
2021/12/17 13:15:32;;;;;;;33.53;10.55;;;;;;;;;;5054314;28;20024;-91
2021/12/17 13:20:55;;;;;;;39.28;11.43;;;;;;;;;;5074682;28;20066;-90
2021/12/17 13:23:21;;;;;;;36.15;9.75;;;;;;;;;;5074365;28;20070;-91
2021/12/17 13:25:58;;;;;;;42.75;11.75;;;;;;;;;;5072975;28;20082;-91
2021/12/17 13:28:23;;;;;;;36.10;9.70;;;;;;;;;;5059734;28;20032;-90
2021/12/17 13:30:53;;;;;;;32.05;10.38;;;;;;;;;;5053094;28;20025;-90
2021/12/17 13:33:18;;;;;;;35.92;10.10;;;;;;;;;;5054077;28;20036;-91
2021/12/17 13:35:45;;;;;;;37.95;12.27;;;;;;;;;;5052912;28;20021;-90
2021/12/17 13:38:11;;;;;;;33.40;10.63;;;;;;;;;;5053060;28;20017;-91
2021/12/17 13:40:37;;;;;;;34.42;10.60;;;;;;;;;;5052945;28;20136;-91
2021/12/17 13:43:02;;;;;;;31.40;10.25;;;;;;;;;;5054164;28;20017;-90
2021/12/17 13:45:30;;;;;;;33.55;11.30;;;;;;;;;;5055140;28;20054;-90
2021/12/17 13:47:56;;;;;;;40.75;11.57;;;;;;;;;;5056993;28;20052;-91
2021/12/17 13:50:24;;;;;;;37.45;11.50;;;;;;;;;;5057941;28;20024;-90
2021/12/17 13:52:54;;;;;;;34.35;11.23;;;;;;;;;;5056799;28;20013;-90
2021/12/17 13:55:21;;;;;;;44.95;11.93;;;;;;;;;;5059935;28;20030;-89
2021/12/17 13:57:47;;;;;;;28.55;10.05;;;;;;;;;;5064849;28;20030;-90
2021/12/17 14:00:14;;;;;;;30.30;9.57;;;;;;;;;;5057750;28;20104;-91
2021/12/17 14:02:40;;;;;;;31.13;9.35;;;;;;;;;;5056670;28;20076;-90
2021/12/17 14:05:14;;;;;;;38.72;10.93;;;;;;;;;;5057777;28;20019;-90
2021/12/17 14:07:40;;;;;;;29.77;9.18;;;;;;;;;;5057630;28;20021;-90
2021/12/17 14:10:10;;;;;;;24.40;8.52;;;;;;;;;;5056446;28;20025;-91
2021/12/17 14:12:39;;;;;;;31.48;9.77;;;;;;;;;;5056442;28;20499;-91
2021/12/17 14:15:06;;;;;;;30.50;9.48;;;;;;;;;;5056506;28;20021;-90
2021/12/17 14:17:43;;;;;;;27.38;9.10;;;;;;;;;;5090142;28;20394;-90
2021/12/17 14:20:19;;;;;;;32.15;9.30;;;;;;;;;;5074970;28;20029;-90
2021/12/17 14:22:45;;;;;;;23.80;8.82;;;;;;;;;;5036512;28;20099;-90
2021/12/17 14:25:24;;;;;;;30.05;8.73;;;;;;;;;;5036146;28;20029;-90
2021/12/17 14:27:51;;;;;;;31.30;9.23;;;;;;;;;;5037364;28;20021;-90
2021/12/17 14:30:21;;;;;;;31.42;10.65;;;;;;;;;;5037307;28;20025;-90
2021/12/17 14:32:47;;;;;;;27.20;9.65;;;;;;;;;;5036130;28;20047;-90
2021/12/17 14:35:13;;;;;;;31.23;10.23;;;;;;;;;;5050152;28;20025;-90
2021/12/17 14:37:48;;;;;;;32.60;10.82;;;;;;;;;;5056019;28;20530;-91
2021/12/17 14:40:24;;;;;;;37.10;11.52;;;;;;;;;;5056767;28;20439;-90
2021/12/17 14:42:51;;;;;;;28.48;10.25;;;;;;;;;;5057046;28;20562;-90
2021/12/17 14:45:20;;;;;;;37.42;12.38;;;;;;;;;;5056040;28;20059;-90
2021/12/17 14:47:53;;;;;;;38.95;12.73;;;;;;;;;;5055857;28;20058;-91
2021/12/17 15:02:01;;;;;;;43.95;15.60;;;;;;;;;;5037190;28;20025;-90
2021/12/17 15:04:23;;;;;;;48.05;16.25;;;;;;;;;;5047755;28;20016;-90
2021/12/17 15:06:48;;;;;;;37.85;13.15;;;;;;;;;;5073390;28;20040;-90
2021/12/17 15:09:13;;;;;;;39.65;13.43;;;;;;;;;;5055405;28;20384;-90
2021/12/17 15:11:42;;;;;;;30.55;13.10;;;;;;;;;;5055475;28;20483;-91
2021/12/17 15:14:07;;;;;;;31.40;11.75;;;;;;;;;;5055293;28;20049;-91
2021/12/17 15:16:32;;;;;;;50.65;15.15;;;;;;;;;;5055371;28;20064;-91
2021/12/17 15:18:57;;;;;;;33.85;13.23;;;;;;;;;;5056758;28;20040;-90
2021/12/17 15:21:23;;;;;;;49.63;13.05;;;;;;;;;;5055336;28;20017;-90
2021/12/17 15:23:48;;;;;;;35.38;13.38;;;;;;;;;;5056351;28;20029;-90
2021/12/17 15:26:13;;;;;;;34.55;13.15;;;;;;;;;;5055071;28;20044;-90
2021/12/17 15:28:38;;;;;;;38.38;13.50;;;;;;;;;;5055123;28;20026;-91
2021/12/17 15:31:06;;;;;;;33.83;13.73;;;;;;;;;;5055183;28;20021;-90
2021/12/17 15:33:33;;;;;;;27.38;12.57;;;;;;;;;;5059690;28;20032;-90
2021/12/17 15:35:59;;;;;;;32.58;12.60;;;;;;;;;;5067537;28;20083;-90
2021/12/17 15:38:24;;;;;;;31.42;11.93;;;;;;;;;;5054984;28;20033;-90
2021/12/17 15:40:50;;;;;;;30.27;11.25;;;;;;;;;;5071565;28;20017;-90
2021/12/17 15:43:16;;;;;;;31.75;12.50;;;;;;;;;;5071398;28;20032;-90
2021/12/17 15:45:42;;;;;;;29.33;11.55;;;;;;;;;;5055541;28;20485;-90
2021/12/17 15:48:08;;;;;;;29.45;12.25;;;;;;;;;;5061010;28;20029;-90
2021/12/17 15:50:34;;;;;;;31.00;12.50;;;;;;;;;;5054792;28;20429;-90
2021/12/17 15:52:59;;;;;;;25.77;11.23;;;;;;;;;;5069868;28;20135;-90
2021/12/17 15:55:25;;;;;;;26.95;10.57;;;;;;;;;;5074637;28;20468;-90
2021/12/17 15:57:54;;;;;;;27.65;9.68;;;;;;;;;;5074507;28;20047;-90
2021/12/17 16:00:20;;;;;;;26.73;11.07;;;;;;;;;;5074573;28;20048;-90
2021/12/17 16:02:45;;;;;;;26.58;10.50;;;;;;;;;;5074334;28;20028;-91
2021/12/17 16:05:12;;;;;;;25.65;11.27;;;;;;;;;;5074510;28;20032;-91
2021/12/17 16:07:37;;;;;;;25.50;10.18;;;;;;;;;;5075051;28;20031;-90
2021/12/17 16:18:14;;;;;;;18.23;7.85;;;;;;;;;;5054378;28;20033;-90
2021/12/17 16:23:24;;;;;;;17.35;7.53;;;;;;;;;;5056434;28;20075;-90
2021/12/17 16:25:49;;;;;;;20.08;7.32;;;;;;;;;;5053708;28;20028;-91
2021/12/17 16:28:15;;;;;;;21.55;7.78;;;;;;;;;;5054023;28;20017;-91
2021/12/17 16:30:40;;;;;;;16.52;6.53;;;;;;;;;;5053806;28;20032;-91
2021/12/17 16:33:05;;;;;;;17.60;7.22;;;;;;;;;;5053934;28;20017;-91
2021/12/17 16:35:30;;;;;;;15.95;7.75;;;;;;;;;;5053719;28;20525;-91
2021/12/17 16:37:56;;;;;;;20.08;7.75;;;;;;;;;;5053817;28;20440;-91
2021/12/17 16:40:21;;;;;;;15.95;7.07;;;;;;;;;;5052958;28;20021;-91
2021/12/17 16:42:46;;;;;;;17.15;6.80;;;;;;;;;;5053951;28;20021;-90
2021/12/17 16:45:21;;;;;;;18.25;7.53;;;;;;;;;;5039867;28;20075;-89
2021/12/17 16:47:50;;;;;;;14.18;6.57;;;;;;;;;;5086510;27;20040;-92
2021/12/17 16:50:16;;;;;;;18.33;7.22;;;;;;;;;;5071431;28;20112;-93
2021/12/17 16:52:41;;;;;;;20.52;7.88;;;;;;;;;;5056331;28;20082;-93
2021/12/17 16:55:07;;;;;;;24.73;8.43;;;;;;;;;;5053893;28;20031;-93
2021/12/17 16:57:33;;;;;;;17.83;8.77;;;;;;;;;;5053469;28;20483;-93
2021/12/17 16:59:58;;;;;;;16.20;6.97;;;;;;;;;;5087031;28;20108;-93
2021/12/17 17:02:23;;;;;;;18.10;7.82;;;;;;;;;;5054864;28;20029;-93
2021/12/17 17:04:49;;;;;;;15.55;7.57;;;;;;;;;;5053720;28;20043;-93
2021/12/17 17:07:14;;;;;;;16.38;7.22;;;;;;;;;;5053687;28;20079;-93
2021/12/17 17:09:39;;;;;;;15.15;6.75;;;;;;;;;;5053503;28;20025;-93
2021/12/17 17:12:07;;;;;;;14.88;6.82;;;;;;;;;;5086606;28;20035;-92
2021/12/17 17:14:33;;;;;;;14.43;6.53;;;;;;;;;;5038088;28;20025;-92
2021/12/17 17:16:59;;;;;;;14.80;7.25;;;;;;;;;;5085264;28;20040;-93
2021/12/17 17:19:24;;;;;;;13.90;7.28;;;;;;;;;;5054394;28;20032;-92
2021/12/17 17:21:50;;;;;;;17.48;7.88;;;;;;;;;;5055288;28;20482;-93
2021/12/17 17:24:17;;;;;;;14.68;6.85;;;;;;;;;;5065443;28;20016;-92
2021/12/17 17:26:43;;;;;;;14.38;6.60;;;;;;;;;;5070022;28;20472;-93
2021/12/17 17:29:08;;;;;;;15.35;6.90;;;;;;;;;;5093560;28;20020;-93
2021/12/17 17:31:33;;;;;;;16.00;7.47;;;;;;;;;;5053916;28;20428;-92
2021/12/17 17:33:59;;;;;;;14.68;6.38;;;;;;;;;;5061484;28;20423;-92
2021/12/17 17:36:24;;;;;;;14.98;6.60;;;;;;;;;;5044013;28;20499;-92
2021/12/17 17:38:50;;;;;;;14.77;6.57;;;;;;;;;;5064076;28;20032;-92